sensor_id;sensor_type;location;lat;lon;timestamp;pressure;altitude;pressure_sealevel;temperature;humidity
20027;BME280;10174;42.688;23.344;2023-01-16T00:00:55;95282.88;;;-0.18;90.95
20027;BME280;10174;42.688;23.344;2023-01-16T00:03:21;95263.81;;;-0.13;91.08
20027;BME280;10174;42.688;23.344;2023-01-16T00:05:47;95164.66;;;-0.71;91.10
20027;BME280;10174;42.688;23.344;2023-01-16T00:08:13;95230.25;;;-0.20;89.98
20027;BME280;10174;42.688;23.344;2023-01-16T00:10:38;95279.72;;;0.07;90.27
20027;BME280;10174;42.688;23.344;2023-01-16T00:13:04;95266.19;;;-0.19;90.39
20027;BME280;10174;42.688;23.344;2023-01-16T00:15:30;95257.66;;;-0.21;90.29
20027;BME280;10174;42.688;23.344;2023-01-16T00:17:55;95270.94;;;-0.07;90.69
20027;BME280;10174;42.688;23.344;2023-01-16T00:20:21;95280.31;;;0.02;90.00
20027;BME280;10174;42.688;23.344;2023-01-16T00:22:47;95239.97;;;-0.27;90.82
20027;BME280;10174;42.688;23.344;2023-01-16T00:25:12;95252.38;;;-0.21;90.63
20027;BME280;10174;42.688;23.344;2023-01-16T00:27:37;95251.22;;;-0.11;91.47
20027;BME280;10174;42.688;23.344;2023-01-16T00:30:04;95269.75;;;0.02;90.92
20027;BME280;10174;42.688;23.344;2023-01-16T00:32:29;95219.72;;;-0.06;90.57
20027;BME280;10174;42.688;23.344;2023-01-16T00:34:55;95252.50;;;0.20;90.88
20027;BME280;10174;42.688;23.344;2023-01-16T00:37:20;95226.03;;;-0.07;90.97
20027;BME280;10174;42.688;23.344;2023-01-16T00:39:46;95221.59;;;0.00;91.72
20027;BME280;10174;42.688;23.344;2023-01-16T00:42:11;95251.50;;;0.14;91.94
20027;BME280;10174;42.688;23.344;2023-01-16T00:44:36;95248.03;;;0.07;91.12
20027;BME280;10174;42.688;23.344;2023-01-16T00:47:02;95242.13;;;0.05;90.85
20027;BME280;10174;42.688;23.344;2023-01-16T00:49:28;95217.84;;;-0.26;90.79
20027;BME280;10174;42.688;23.344;2023-01-16T00:51:53;95244.88;;;-0.17;91.26
20027;BME280;10174;42.688;23.344;2023-01-16T00:54:19;95233.25;;;-0.36;91.34
20027;BME280;10174;42.688;23.344;2023-01-16T00:56:44;95214.09;;;-0.51;91.55
20027;BME280;10174;42.688;23.344;2023-01-16T00:59:10;95234.81;;;-0.48;91.27
20027;BME280;10174;42.688;23.344;2023-01-16T01:01:35;95230.78;;;-0.38;91.07
20027;BME280;10174;42.688;23.344;2023-01-16T01:04:01;95222.69;;;-0.36;91.07
20027;BME280;10174;42.688;23.344;2023-01-16T01:06:26;95221.88;;;-0.30;91.45
20027;BME280;10174;42.688;23.344;2023-01-16T01:08:52;95206.00;;;-0.43;91.13
20027;BME280;10174;42.688;23.344;2023-01-16T01:11:17;95198.72;;;-0.41;91.37
20027;BME280;10174;42.688;23.344;2023-01-16T01:13:43;95243.88;;;-0.16;90.73
20027;BME280;10174;42.688;23.344;2023-01-16T01:16:10;95241.03;;;-0.14;90.10
20027;BME280;10174;42.688;23.344;2023-01-16T01:18:36;95247.09;;;-0.21;90.26
20027;BME280;10174;42.688;23.344;2023-01-16T01:21:02;95237.16;;;-0.19;90.13
20027;BME280;10174;42.688;23.344;2023-01-16T01:23:28;95210.47;;;-0.44;90.67
20027;BME280;10174;42.688;23.344;2023-01-16T01:25:53;95222.69;;;-0.36;91.06
20027;BME280;10174;42.688;23.344;2023-01-16T01:28:19;95225.53;;;-0.31;90.32
20027;BME280;10174;42.688;23.344;2023-01-16T01:30:44;95210.88;;;-0.40;90.63
20027;BME280;10174;42.688;23.344;2023-01-16T01:33:10;95179.59;;;-0.43;90.73
20027;BME280;10174;42.688;23.344;2023-01-16T01:35:36;95096.44;;;-0.81;91.32
20027;BME280;10174;42.688;23.344;2023-01-16T01:38:02;95183.75;;;-0.14;89.90
20027;BME280;10174;42.688;23.344;2023-01-16T01:40:27;95178.41;;;-0.34;90.78
20027;BME280;10174;42.688;23.344;2023-01-16T01:42:53;95193.84;;;-0.31;91.08
20027;BME280;10174;42.688;23.344;2023-01-16T01:45:29;95193.91;;;-0.17;91.28
20027;BME280;10174;42.688;23.344;2023-01-16T01:50:45;95200.41;;;-0.13;91.35
20027;BME280;10174;42.688;23.344;2023-01-16T01:53:25;95146.06;;;-0.49;91.05
20027;BME280;10174;42.688;23.344;2023-01-16T01:55:53;95205.03;;;-0.29;91.29
20027;BME280;10174;42.688;23.344;2023-01-16T01:58:22;95197.94;;;-0.28;90.64
20027;BME280;10174;42.688;23.344;2023-01-16T02:00:53;95174.03;;;-0.62;90.73
20027;BME280;10174;42.688;23.344;2023-01-16T02:03:27;95191.94;;;-0.50;90.76
20027;BME280;10174;42.688;23.344;2023-01-16T02:05:57;95197.47;;;-0.45;90.71
20027;BME280;10174;42.688;23.344;2023-01-16T02:08:26;95062.72;;;-1.34;91.21
20027;BME280;10174;42.688;23.344;2023-01-16T02:13:31;95195.88;;;-0.40;90.09
20027;BME280;10174;42.688;23.344;2023-01-16T02:15:57;95167.38;;;-0.58;90.84
20027;BME280;10174;42.688;23.344;2023-01-16T02:18:42;95176.75;;;-0.48;90.28
20027;BME280;10174;42.688;23.344;2023-01-16T02:26:57;95178.47;;;-0.69;90.90
20027;BME280;10174;42.688;23.344;2023-01-16T02:29:52;95175.41;;;-0.73;91.28
20027;BME280;10174;42.688;23.344;2023-01-16T02:35:25;95155.88;;;-0.78;91.63
20027;BME280;10174;42.688;23.344;2023-01-16T02:38:01;95067.97;;;-1.40;91.50
20027;BME280;10174;42.688;23.344;2023-01-16T02:40:54;95168.47;;;-0.80;91.77
20027;BME280;10174;42.688;23.344;2023-01-16T02:51:23;95159.78;;;-0.74;90.82
20027;BME280;10174;42.688;23.344;2023-01-16T02:53:57;95160.19;;;-0.70;91.10
20027;BME280;10174;42.688;23.344;2023-01-16T02:56:36;95156.31;;;-0.75;91.11
20027;BME280;10174;42.688;23.344;2023-01-16T02:59:08;95031.59;;;-1.52;91.13
20027;BME280;10174;42.688;23.344;2023-01-16T03:01:35;95047.06;;;-1.42;91.16
20027;BME280;10174;42.688;23.344;2023-01-16T03:06:44;95142.75;;;-0.65;90.99
20027;BME280;10174;42.688;23.344;2023-01-16T03:11:56;95146.38;;;-0.79;91.46
20027;BME280;10174;42.688;23.344;2023-01-16T03:17:21;95135.63;;;-0.78;91.00
20027;BME280;10174;42.688;23.344;2023-01-16T03:25:26;95136.03;;;-0.74;91.09
20027;BME280;10174;42.688;23.344;2023-01-16T03:30:35;95094.16;;;-0.91;91.27
20027;BME280;10174;42.688;23.344;2023-01-16T03:33:06;95098.03;;;-0.80;91.09
20027;BME280;10174;42.688;23.344;2023-01-16T03:35:46;94993.78;;;-1.37;90.32
20027;BME280;10174;42.688;23.344;2023-01-16T03:38:17;95101.06;;;-0.83;90.41
20027;BME280;10174;42.688;23.344;2023-01-16T03:40:46;95073.44;;;-0.94;90.68
20027;BME280;10174;42.688;23.344;2023-01-16T03:43:14;95093.00;;;-0.75;90.72
20027;BME280;10174;42.688;23.344;2023-01-16T03:49:17;95072.66;;;-0.87;91.26
20027;BME280;10174;42.688;23.344;2023-01-16T03:51:52;95071.66;;;-0.86;91.19
20027;BME280;10174;42.688;23.344;2023-01-16T03:54:25;95077.38;;;-0.69;90.90
20027;BME280;10174;42.688;23.344;2023-01-16T03:57:21;95072.72;;;-0.67;90.82
20027;BME280;10174;42.688;23.344;2023-01-16T03:59:48;95052.00;;;-0.84;90.92
20027;BME280;10174;42.688;23.344;2023-01-16T04:05:00;94984.09;;;-1.23;90.42
20027;BME280;10174;42.688;23.344;2023-01-16T04:07:34;94988.97;;;-1.20;90.65
20027;BME280;10174;42.688;23.344;2023-01-16T04:10:15;95047.72;;;-0.85;90.63
20027;BME280;10174;42.688;23.344;2023-01-16T04:12:47;95056.22;;;-0.83;91.10
20027;BME280;10174;42.688;23.344;2023-01-16T04:15:15;95071.13;;;-0.62;90.74
20027;BME280;10174;42.688;23.344;2023-01-16T04:17:42;95073.94;;;-0.70;90.99
20027;BME280;10174;42.688;23.344;2023-01-16T04:20:08;94965.19;;;-1.34;91.18
20027;BME280;10174;42.688;23.344;2023-01-16T04:22:35;95071.13;;;-0.62;90.56
20027;BME280;10174;42.688;23.344;2023-01-16T04:25:03;95040.19;;;-0.81;90.71
20027;BME280;10174;42.688;23.344;2023-01-16T04:27:30;95039.59;;;-0.83;91.39
20027;BME280;10174;42.688;23.344;2023-01-16T04:29:55;95056.06;;;-0.68;92.12
20027;BME280;10174;42.688;23.344;2023-01-16T04:32:21;95041.44;;;-0.70;91.72
20027;BME280;10174;42.688;23.344;2023-01-16T04:34:46;95066.28;;;-0.45;91.50
20027;BME280;10174;42.688;23.344;2023-01-16T04:37:14;95042.91;;;-0.55;92.16
20027;BME280;10174;42.688;23.344;2023-01-16T04:39:39;95048.63;;;-0.44;91.77
20027;BME280;10174;42.688;23.344;2023-01-16T04:42:06;95055.31;;;-0.48;91.68
20027;BME280;10174;42.688;23.344;2023-01-16T04:44:32;95047.81;;;-0.25;91.97
20027;BME280;10174;42.688;23.344;2023-01-16T04:46:57;95033.59;;;-0.17;92.13
20027;BME280;10174;42.688;23.344;2023-01-16T04:49:22;95013.50;;;-0.25;92.93
20027;BME280;10174;42.688;23.344;2023-01-16T04:51:48;95030.38;;;-0.26;92.77
20027;BME280;10174;42.688;23.344;2023-01-16T04:54:15;95053.72;;;-0.09;92.95
20027;BME280;10174;42.688;23.344;2023-01-16T04:56:41;95032.41;;;-0.21;92.94
20027;BME280;10174;42.688;23.344;2023-01-16T04:59:07;95016.34;;;-0.26;92.95
20027;BME280;10174;42.688;23.344;2023-01-16T05:01:33;95022.25;;;-0.24;93.14
20027;BME280;10174;42.688;23.344;2023-01-16T05:04:07;95042.75;;;-0.06;93.58
20027;BME280;10174;42.688;23.344;2023-01-16T05:06:34;95017.56;;;-0.15;93.25
20027;BME280;10174;42.688;23.344;2023-01-16T05:09:01;94966.59;;;-0.49;93.53
20027;BME280;10174;42.688;23.344;2023-01-16T05:11:26;95036.28;;;-0.10;93.72
20027;BME280;10174;42.688;23.344;2023-01-16T05:13:52;94976.16;;;-0.35;93.59
20027;BME280;10174;42.688;23.344;2023-01-16T05:16:17;95049.28;;;0.11;93.58
20027;BME280;10174;42.688;23.344;2023-01-16T05:18:43;95038.69;;;0.11;92.70
20027;BME280;10174;42.688;23.344;2023-01-16T05:21:08;94999.72;;;0.00;93.91
20027;BME280;10174;42.688;23.344;2023-01-16T05:23:34;95017.97;;;0.22;93.91
20027;BME280;10174;42.688;23.344;2023-01-16T05:26:00;95016.09;;;0.29;94.13
20027;BME280;10174;42.688;23.344;2023-01-16T05:28:26;95010.03;;;0.22;93.71
20027;BME280;10174;42.688;23.344;2023-01-16T05:30:52;95002.72;;;0.24;93.69
20027;BME280;10174;42.688;23.344;2023-01-16T05:33:17;95019.16;;;0.39;94.14
20027;BME280;10174;42.688;23.344;2023-01-16T05:35:45;95015.25;;;0.48;93.72
20027;BME280;10174;42.688;23.344;2023-01-16T05:38:11;95004.47;;;0.50;93.14
20027;BME280;10174;42.688;23.344;2023-01-16T05:40:36;94904.19;;;-0.04;93.07
20027;BME280;10174;42.688;23.344;2023-01-16T05:43:02;94979.88;;;0.43;92.98
20027;BME280;10174;42.688;23.344;2023-01-16T05:45:28;94998.16;;;0.58;93.58
20027;BME280;10174;42.688;23.344;2023-01-16T05:47:54;94999.41;;;0.48;94.01
20027;BME280;10174;42.688;23.344;2023-01-16T05:50:19;94886.75;;;-0.25;93.98
20027;BME280;10174;42.688;23.344;2023-01-16T05:52:44;94996.38;;;0.38;94.36
20027;BME280;10174;42.688;23.344;2023-01-16T05:55:10;94989.06;;;0.40;94.48
20027;BME280;10174;42.688;23.344;2023-01-16T05:57:35;94999.19;;;0.57;93.85
20027;BME280;10174;42.688;23.344;2023-01-16T06:00:01;94995.53;;;0.51;94.65
20027;BME280;10174;42.688;23.344;2023-01-16T06:02:26;94997.97;;;0.52;94.03
20027;BME280;10174;42.688;23.344;2023-01-16T06:04:52;95007.31;;;0.62;94.35
20027;BME280;10174;42.688;23.344;2023-01-16T06:07:17;94864.03;;;-0.26;94.73
20027;BME280;10174;42.688;23.344;2023-01-16T06:09:43;94989.84;;;0.54;94.56
20027;BME280;10174;42.688;23.344;2023-01-16T06:12:14;94968.25;;;0.64;94.60
20027;BME280;10174;42.688;23.344;2023-01-16T06:14:39;94979.19;;;0.74;94.16
20027;BME280;10174;42.688;23.344;2023-01-16T06:17:04;94997.03;;;0.92;94.22
20027;BME280;10174;42.688;23.344;2023-01-16T06:19:30;94993.81;;;0.83;94.06
20027;BME280;10174;42.688;23.344;2023-01-16T06:21:55;94961.53;;;0.68;94.12
20027;BME280;10174;42.688;23.344;2023-01-16T06:24:20;94962.91;;;0.77;93.61
20027;BME280;10174;42.688;23.344;2023-01-16T06:26:46;94874.88;;;0.25;93.71
20027;BME280;10174;42.688;23.344;2023-01-16T06:29:11;94892.69;;;0.36;93.56
20027;BME280;10174;42.688;23.344;2023-01-16T06:31:37;94997.78;;;1.06;93.42
20027;BME280;10174;42.688;23.344;2023-01-16T06:34:02;94985.41;;;0.93;93.54
20027;BME280;10174;42.688;23.344;2023-01-16T06:36:28;95005.47;;;1.14;93.72
20027;BME280;10174;42.688;23.344;2023-01-16T06:38:53;94959.88;;;1.12;91.65
20027;BME280;10174;42.688;23.344;2023-01-16T06:41:19;95014.72;;;1.37;91.94
20027;BME280;10174;42.688;23.344;2023-01-16T06:43:44;95007.03;;;1.29;92.34
20027;BME280;10174;42.688;23.344;2023-01-16T06:46:10;95026.94;;;1.38;91.99
20027;BME280;10174;42.688;23.344;2023-01-16T06:48:35;94983.72;;;1.44;91.75
20027;BME280;10174;42.688;23.344;2023-01-16T06:51:01;94953.19;;;1.41;91.47
20027;BME280;10174;42.688;23.344;2023-01-16T06:53:26;94982.16;;;1.62;90.64
20027;BME280;10174;42.688;23.344;2023-01-16T06:55:52;94807.22;;;0.56;90.64
20027;BME280;10174;42.688;23.344;2023-01-16T06:58:17;94941.38;;;1.37;91.05
20027;BME280;10174;42.688;23.344;2023-01-16T07:00:43;94960.25;;;1.48;91.01
20027;BME280;10174;42.688;23.344;2023-01-16T07:03:10;94981.16;;;1.63;91.14
20027;BME280;10174;42.688;23.344;2023-01-16T07:05:35;94877.91;;;1.05;90.95
20027;BME280;10174;42.688;23.344;2023-01-16T07:08:01;94980.28;;;1.69;90.45
20027;BME280;10174;42.688;23.344;2023-01-16T07:10:26;94993.75;;;1.67;90.73
20027;BME280;10174;42.688;23.344;2023-01-16T07:12:52;94984.22;;;1.59;89.75
20027;BME280;10174;42.688;23.344;2023-01-16T07:15:19;94969.34;;;1.58;89.59
20027;BME280;10174;42.688;23.344;2023-01-16T07:18:03;94987.44;;;1.93;89.63
20027;BME280;10174;42.688;23.344;2023-01-16T07:20:55;94864.03;;;1.35;88.94
20027;BME280;10174;42.688;23.344;2023-01-16T07:23:43;94984.66;;;2.07;88.90
20027;BME280;10174;42.688;23.344;2023-01-16T07:26:11;94983.06;;;2.24;88.70
20027;BME280;10174;42.688;23.344;2023-01-16T07:28:37;94992.59;;;2.32;88.27
20027;BME280;10174;42.688;23.344;2023-01-16T07:31:04;94904.16;;;2.08;86.12
20027;BME280;10174;42.688;23.344;2023-01-16T07:33:30;94974.72;;;2.46;85.48
20027;BME280;10174;42.688;23.344;2023-01-16T07:35:56;94986.34;;;2.26;86.47
20027;BME280;10174;42.688;23.344;2023-01-16T07:38:22;94970.22;;;2.03;87.75
20027;BME280;10174;42.688;23.344;2023-01-16T07:40:48;94976.72;;;2.07;87.74
20027;BME280;10174;42.688;23.344;2023-01-16T07:43:13;94897.53;;;1.23;88.89
20027;BME280;10174;42.688;23.344;2023-01-16T07:45:39;94923.50;;;1.33;89.92
20027;BME280;10174;42.688;23.344;2023-01-16T07:48:05;94962.25;;;1.59;90.65
20027;BME280;10174;42.688;23.344;2023-01-16T07:50:30;94956.88;;;1.66;90.98
20027;BME280;10174;42.688;23.344;2023-01-16T07:52:56;94944.50;;;1.59;90.40
20027;BME280;10174;42.688;23.344;2023-01-16T07:55:22;94922.16;;;1.74;89.91
20027;BME280;10174;42.688;23.344;2023-01-16T07:57:48;94936.44;;;1.98;90.25
20027;BME280;10174;42.688;23.344;2023-01-16T08:00:14;94831.38;;;1.48;89.66
20027;BME280;10174;42.688;23.344;2023-01-16T08:02:41;94927.44;;;2.43;88.31
20027;BME280;10174;42.688;23.344;2023-01-16T08:05:07;94920.63;;;2.28;87.38
20027;BME280;10174;42.688;23.344;2023-01-16T08:07:33;94840.50;;;1.71;88.41
20027;BME280;10174;42.688;23.344;2023-01-16T08:09:58;94853.44;;;1.60;87.15
20027;BME280;10174;42.688;23.344;2023-01-16T08:12:23;94901.19;;;1.72;87.95
20027;BME280;10174;42.688;23.344;2023-01-16T08:14:49;94931.03;;;1.86;89.38
20027;BME280;10174;42.688;23.344;2023-01-16T08:17:14;94930.00;;;1.87;88.48
20027;BME280;10174;42.688;23.344;2023-01-16T08:19:40;94920.25;;;1.63;89.16
20027;BME280;10174;42.688;23.344;2023-01-16T08:22:06;94940.41;;;1.64;89.73
20027;BME280;10174;42.688;23.344;2023-01-16T08:24:31;94861.19;;;1.12;89.72
20027;BME280;10174;42.688;23.344;2023-01-16T08:26:57;94959.09;;;1.69;90.27
20027;BME280;10174;42.688;23.344;2023-01-16T08:29:23;94941.00;;;1.66;90.28
20027;BME280;10174;42.688;23.344;2023-01-16T08:31:49;94847.47;;;1.21;90.15
20027;BME280;10174;42.688;23.344;2023-01-16T08:34:15;94916.81;;;1.55;90.29
20027;BME280;10174;42.688;23.344;2023-01-16T08:36:41;94938.97;;;1.86;89.96
20027;BME280;10174;42.688;23.344;2023-01-16T08:39:09;94812.84;;;1.23;88.82
20027;BME280;10174;42.688;23.344;2023-01-16T08:41:35;94881.88;;;1.90;88.83
20027;BME280;10174;42.688;23.344;2023-01-16T08:44:19;94870.72;;;2.07;88.07
20027;BME280;10174;42.688;23.344;2023-01-16T08:47:11;94894.53;;;2.62;86.98
20027;BME280;10174;42.688;23.344;2023-01-16T08:49:55;94797.97;;;2.21;85.68
20027;BME280;10174;42.688;23.344;2023-01-16T08:52:39;94858.13;;;2.70;85.53
20027;BME280;10174;42.688;23.344;2023-01-16T08:55:06;94882.34;;;2.92;84.09
20027;BME280;10174;42.688;23.344;2023-01-16T08:57:31;94803.22;;;2.58;84.13
20027;BME280;10174;42.688;23.344;2023-01-16T08:59:57;94882.53;;;3.09;84.33
20027;BME280;10174;42.688;23.344;2023-01-16T09:02:24;94906.97;;;3.11;85.04
20027;BME280;10174;42.688;23.344;2023-01-16T09:04:50;94781.09;;;2.34;84.21
20027;BME280;10174;42.688;23.344;2023-01-16T09:07:15;94870.63;;;2.81;84.10
20027;BME280;10174;42.688;23.344;2023-01-16T09:09:41;94879.97;;;3.14;84.13
20027;BME280;10174;42.688;23.344;2023-01-16T09:12:11;94783.25;;;2.56;83.51
20027;BME280;10174;42.688;23.344;2023-01-16T09:14:56;94757.19;;;2.22;82.98
20027;BME280;10174;42.688;23.344;2023-01-16T09:17:23;94879.53;;;3.17;82.76
20027;BME280;10174;42.688;23.344;2023-01-16T09:19:49;94877.41;;;3.37;82.17
20027;BME280;10174;42.688;23.344;2023-01-16T09:22:14;94880.63;;;3.63;81.71
20027;BME280;10174;42.688;23.344;2023-01-16T09:24:40;94841.72;;;3.57;80.68
20027;BME280;10174;42.688;23.344;2023-01-16T09:27:05;94801.75;;;3.40;79.67
20027;BME280;10174;42.688;23.344;2023-01-16T09:29:31;94811.38;;;3.53;78.69
20027;BME280;10174;42.688;23.344;2023-01-16T09:31:57;94830.53;;;3.67;79.48
20027;BME280;10174;42.688;23.344;2023-01-16T09:34:23;94852.81;;;4.01;78.96
20027;BME280;10174;42.688;23.344;2023-01-16T09:36:48;94834.19;;;4.01;77.66
20027;BME280;10174;42.688;23.344;2023-01-16T09:39:14;94846.81;;;4.58;77.41
20027;BME280;10174;42.688;23.344;2023-01-16T09:41:54;94842.00;;;5.01;75.49
20027;BME280;10174;42.688;23.344;2023-01-16T09:44:44;94850.94;;;4.95;75.13
20027;BME280;10174;42.688;23.344;2023-01-16T09:47:11;94810.06;;;5.01;74.10
20027;BME280;10174;42.688;23.344;2023-01-16T09:49:45;94751.38;;;4.96;73.44
20027;BME280;10174;42.688;23.344;2023-01-16T09:52:17;94714.28;;;5.06;71.91
20027;BME280;10174;42.688;23.344;2023-01-16T09:55:10;94820.00;;;5.57;72.38
20027;BME280;10174;42.688;23.344;2023-01-16T09:57:56;94800.88;;;5.26;73.38
20027;BME280;10174;42.688;23.344;2023-01-16T10:00:41;94813.16;;;5.27;73.60
20027;BME280;10174;42.688;23.344;2023-01-16T10:03:07;94701.91;;;4.20;74.70
20027;BME280;10174;42.688;23.344;2023-01-16T10:05:57;94710.69;;;4.50;74.19
20027;BME280;10174;42.688;23.344;2023-01-16T10:11:22;94799.81;;;5.61;72.62
20027;BME280;10174;42.688;23.344;2023-01-16T10:16:58;94777.50;;;5.67;72.94
20027;BME280;10174;42.688;23.344;2023-01-16T10:24:55;94769.28;;;5.68;72.98
20027;BME280;10174;42.688;23.344;2023-01-16T10:27:36;94764.56;;;5.76;73.04
20027;BME280;10174;42.688;23.344;2023-01-16T10:30:28;94746.03;;;5.64;73.32
20027;BME280;10174;42.688;23.344;2023-01-16T10:33:39;94711.56;;;5.40;73.85
20027;BME280;10174;42.688;23.344;2023-01-16T10:35:55;94683.69;;;5.26;73.84
20027;BME280;10174;42.688;23.344;2023-01-16T10:38:35;94738.56;;;5.66;73.06
20027;BME280;10174;42.688;23.344;2023-01-16T10:41:22;94634.97;;;4.91;73.88
20027;BME280;10174;42.688;23.344;2023-01-16T10:44:32;94667.13;;;5.07;73.85
20027;BME280;10174;42.688;23.344;2023-01-16T10:47:19;94713.28;;;5.29;75.25
20027;BME280;10174;42.688;23.344;2023-01-16T10:50:06;94704.50;;;5.29;75.02
20027;BME280;10174;42.688;23.344;2023-01-16T10:52:32;94715.78;;;5.36;74.76
20027;BME280;10174;42.688;23.344;2023-01-16T10:54:59;94702.81;;;5.23;75.24
20027;BME280;10174;42.688;23.344;2023-01-16T10:57:25;94689.84;;;5.48;74.82
20027;BME280;10174;42.688;23.344;2023-01-16T10:59:54;94679.44;;;5.47;74.89
20027;BME280;10174;42.688;23.344;2023-01-16T11:04:54;94650.97;;;5.30;75.05
20027;BME280;10174;42.688;23.344;2023-01-16T11:07:21;94661.53;;;5.64;74.59
20027;BME280;10174;42.688;23.344;2023-01-16T11:09:47;94663.66;;;5.62;74.49
20027;BME280;10174;42.688;23.344;2023-01-16T11:12:24;94629.19;;;5.33;75.29
20027;BME280;10174;42.688;23.344;2023-01-16T11:15:18;94653.22;;;5.39;75.51
20027;BME280;10174;42.688;23.344;2023-01-16T11:18:28;94627.28;;;5.12;76.09
20027;BME280;10174;42.688;23.344;2023-01-16T11:20:54;94630.06;;;5.39;75.45
20027;BME280;10174;42.688;23.344;2023-01-16T11:23:22;94639.72;;;5.89;74.49
20027;BME280;10174;42.688;23.344;2023-01-16T11:25:51;94653.78;;;6.62;71.65
20027;BME280;10174;42.688;23.344;2023-01-16T11:28:30;94619.50;;;6.48;70.65
20027;BME280;10174;42.688;23.344;2023-01-16T11:31:26;94629.78;;;6.62;70.29
20027;BME280;10174;42.688;23.344;2023-01-16T11:33:58;94650.50;;;6.22;71.14
20027;BME280;10174;42.688;23.344;2023-01-16T11:36:30;94606.16;;;5.94;72.41
20027;BME280;10174;42.688;23.344;2023-01-16T11:38:56;94649.47;;;6.55;71.06
20027;BME280;10174;42.688;23.344;2023-01-16T11:41:32;94590.97;;;6.86;69.77
20027;BME280;10174;42.688;23.344;2023-01-16T11:44:15;94617.81;;;7.55;67.01
20027;BME280;10174;42.688;23.344;2023-01-16T11:47:00;94605.38;;;7.96;65.60
20027;BME280;10174;42.688;23.344;2023-01-16T11:49:46;94595.19;;;7.83;66.36
20027;BME280;10174;42.688;23.344;2023-01-16T11:52:14;94620.81;;;7.74;66.17
20027;BME280;10174;42.688;23.344;2023-01-16T11:54:55;94606.00;;;8.29;63.50
20027;BME280;10174;42.688;23.344;2023-01-16T12:11:21;94576.81;;;7.28;66.66
20027;BME280;10174;42.688;23.344;2023-01-16T12:14:27;94569.19;;;7.10;67.35
20027;BME280;10174;42.688;23.344;2023-01-16T12:39:22;94533.59;;;7.52;65.61
20027;BME280;10174;42.688;23.344;2023-01-16T12:44:48;94530.75;;;7.06;68.22
20027;BME280;10174;42.688;23.344;2023-01-16T12:47:40;94523.28;;;6.60;68.71
20027;BME280;10174;42.688;23.344;2023-01-16T12:53:04;94430.41;;;5.87;69.15
20027;BME280;10174;42.688;23.344;2023-01-16T12:58:19;94510.47;;;6.24;70.89
20027;BME280;10174;42.688;23.344;2023-01-16T13:03:27;94491.84;;;6.30;70.22
20027;BME280;10174;42.688;23.344;2023-01-16T13:05:59;94447.47;;;6.18;69.81
20027;BME280;10174;42.688;23.344;2023-01-16T13:08:37;94441.13;;;6.24;69.66
20027;BME280;10174;42.688;23.344;2023-01-16T13:11:09;94477.13;;;6.65;69.11
20027;BME280;10174;42.688;23.344;2023-01-16T13:14:06;94460.41;;;6.37;70.33
20027;BME280;10174;42.688;23.344;2023-01-16T13:16:59;94475.84;;;6.30;70.89
20027;BME280;10174;42.688;23.344;2023-01-16T13:19:29;94360.06;;;5.56;70.50
20027;BME280;10174;42.688;23.344;2023-01-16T13:22:03;94472.91;;;6.31;70.53
20027;BME280;10174;42.688;23.344;2023-01-16T13:24:34;94403.09;;;6.02;70.70
20027;BME280;10174;42.688;23.344;2023-01-16T13:27:11;94447.84;;;6.32;70.74
20027;BME280;10174;42.688;23.344;2023-01-16T13:29:47;94442.03;;;6.46;70.32
20027;BME280;10174;42.688;23.344;2023-01-16T13:32:37;94434.34;;;6.12;71.02
20027;BME280;10174;42.688;23.344;2023-01-16T13:37:58;94462.91;;;6.11;71.47
20027;BME280;10174;42.688;23.344;2023-01-16T13:43:59;94450.84;;;5.76;72.99
20027;BME280;10174;42.688;23.344;2023-01-16T13:46:46;94436.88;;;5.64;73.20
20027;BME280;10174;42.688;23.344;2023-01-16T13:49:20;94363.72;;;4.90;73.96
20027;BME280;10174;42.688;23.344;2023-01-16T13:51:47;94425.50;;;5.41;74.46
20027;BME280;10174;42.688;23.344;2023-01-16T13:54:22;94440.47;;;5.47;74.76
20027;BME280;10174;42.688;23.344;2023-01-16T13:57:00;94421.53;;;5.44;73.86
20027;BME280;10174;42.688;23.344;2023-01-16T13:59:40;94422.97;;;5.57;74.16
20027;BME280;10174;42.688;23.344;2023-01-16T14:13:32;94424.22;;;5.22;76.10
20027;BME280;10174;42.688;23.344;2023-01-16T14:16:00;94436.78;;;5.26;76.50
20027;BME280;10174;42.688;23.344;2023-01-16T14:19:01;94426.38;;;5.25;77.00
20027;BME280;10174;42.688;23.344;2023-01-16T14:21:39;94440.66;;;5.13;75.53
20027;BME280;10174;42.688;23.344;2023-01-16T14:24:26;94449.97;;;5.16;74.83
20027;BME280;10174;42.688;23.344;2023-01-16T14:26:53;94440.59;;;5.08;75.27
20027;BME280;10174;42.688;23.344;2023-01-16T14:29:23;94466.63;;;5.01;75.36
20027;BME280;10174;42.688;23.344;2023-01-16T14:31:57;94440.47;;;4.76;76.46
20027;BME280;10174;42.688;23.344;2023-01-16T14:34:27;94450.81;;;4.72;76.50
20027;BME280;10174;42.688;23.344;2023-01-16T14:36:59;94452.22;;;4.58;77.63
20027;BME280;10174;42.688;23.344;2023-01-16T14:39:28;94445.09;;;4.41;77.71
20027;BME280;10174;42.688;23.344;2023-01-16T14:41:58;94424.66;;;4.25;78.49
20027;BME280;10174;42.688;23.344;2023-01-16T14:48:12;94326.03;;;3.65;78.53
20027;BME280;10174;42.688;23.344;2023-01-16T14:56:49;94418.78;;;4.23;79.14
20027;BME280;10174;42.688;23.344;2023-01-16T14:59:22;94370.44;;;3.87;79.59
20027;BME280;10174;42.688;23.344;2023-01-16T15:01:58;94433.13;;;4.22;80.24
20027;BME280;10174;42.688;23.344;2023-01-16T15:04:53;94449.19;;;4.49;79.18
20027;BME280;10174;42.688;23.344;2023-01-16T15:07:35;94406.19;;;4.35;79.08
20027;BME280;10174;42.688;23.344;2023-01-16T15:10:05;94391.31;;;4.17;79.67
20027;BME280;10174;42.688;23.344;2023-01-16T15:12:42;94412.00;;;4.32;79.36
20027;BME280;10174;42.688;23.344;2023-01-16T15:15:23;94377.81;;;4.02;79.85
20027;BME280;10174;42.688;23.344;2023-01-16T15:17:53;94426.69;;;4.18;80.64
20027;BME280;10174;42.688;23.344;2023-01-16T15:20:38;94329.72;;;3.64;79.90
20027;BME280;10174;42.688;23.344;2023-01-16T15:23:33;94419.25;;;4.20;80.39
20027;BME280;10174;42.688;23.344;2023-01-16T15:31:16;94421.19;;;4.24;80.03
20027;BME280;10174;42.688;23.344;2023-01-16T15:33:43;94427.00;;;4.21;80.39
20027;BME280;10174;42.688;23.344;2023-01-16T15:36:40;94407.63;;;4.04;80.34